sensor_id;sensor_type;location;lat;lon;timestamp;temperature;humidity
59651;DHT22;45954;49.768;8.636;2023-03-23T00:00:09;15.80;91.80
59651;DHT22;45954;49.768;8.636;2023-03-23T00:02:35;15.80;91.50
59651;DHT22;45954;49.768;8.636;2023-03-23T00:05:04;15.90;91.50
59651;DHT22;45954;49.768;8.636;2023-03-23T00:07:33;15.80;91.90
59651;DHT22;45954;49.768;8.636;2023-03-23T00:10:01;15.90;91.80
59651;DHT22;45954;49.768;8.636;2023-03-23T00:12:31;15.90;91.70
59651;DHT22;45954;49.768;8.636;2023-03-23T00:15:01;16.00;91.60
59651;DHT22;45954;49.768;8.636;2023-03-23T00:17:29;16.00;91.80
59651;DHT22;45954;49.768;8.636;2023-03-23T00:22:28;16.00;91.80
59651;DHT22;45954;49.768;8.636;2023-03-23T00:24:54;15.90;91.70
59651;DHT22;45954;49.768;8.636;2023-03-23T00:27:22;16.00;91.80
59651;DHT22;45954;49.768;8.636;2023-03-23T00:29:51;16.00;91.60
59651;DHT22;45954;49.768;8.636;2023-03-23T00:32:20;16.10;91.60
59651;DHT22;45954;49.768;8.636;2023-03-23T00:34:54;16.10;91.40
59651;DHT22;45954;49.768;8.636;2023-03-23T00:37:20;16.10;91.40
59651;DHT22;45954;49.768;8.636;2023-03-23T00:39:47;16.10;91.40
59651;DHT22;45954;49.768;8.636;2023-03-23T00:42:14;16.00;91.20
59651;DHT22;45954;49.768;8.636;2023-03-23T00:44:40;16.10;91.30
59651;DHT22;45954;49.768;8.636;2023-03-23T00:47:07;16.10;91.30
59651;DHT22;45954;49.768;8.636;2023-03-23T00:49:35;16.10;91.40
59651;DHT22;45954;49.768;8.636;2023-03-23T00:52:02;16.00;91.70
59651;DHT22;45954;49.768;8.636;2023-03-23T00:54:29;15.90;91.90
59651;DHT22;45954;49.768;8.636;2023-03-23T00:56:55;16.00;91.90
59651;DHT22;45954;49.768;8.636;2023-03-23T00:59:22;15.90;92.10
59651;DHT22;45954;49.768;8.636;2023-03-23T01:01:49;15.80;92.40
59651;DHT22;45954;49.768;8.636;2023-03-23T01:04:15;15.80;92.60
59651;DHT22;45954;49.768;8.636;2023-03-23T01:06:43;15.80;92.60
59651;DHT22;45954;49.768;8.636;2023-03-23T01:09:12;15.70;92.60
59651;DHT22;45954;49.768;8.636;2023-03-23T01:11:44;15.70;92.80
59651;DHT22;45954;49.768;8.636;2023-03-23T01:14:12;15.70;92.80
59651;DHT22;45954;49.768;8.636;2023-03-23T01:16:40;15.70;92.40
59651;DHT22;45954;49.768;8.636;2023-03-23T01:19:06;15.70;92.30
59651;DHT22;45954;49.768;8.636;2023-03-23T01:21:31;15.80;92.10
59651;DHT22;45954;49.768;8.636;2023-03-23T01:23:57;15.80;92.00
59651;DHT22;45954;49.768;8.636;2023-03-23T01:26:25;15.70;92.10
59651;DHT22;45954;49.768;8.636;2023-03-23T01:28:52;15.80;92.20
59651;DHT22;45954;49.768;8.636;2023-03-23T01:31:23;15.80;91.90
59651;DHT22;45954;49.768;8.636;2023-03-23T01:33:51;15.70;92.10
59651;DHT22;45954;49.768;8.636;2023-03-23T01:36:20;15.70;92.20
59651;DHT22;45954;49.768;8.636;2023-03-23T01:38:49;15.60;92.10
59651;DHT22;45954;49.768;8.636;2023-03-23T01:41:17;15.60;92.20
59651;DHT22;45954;49.768;8.636;2023-03-23T01:46:42;15.70;92.50
59651;DHT22;45954;49.768;8.636;2023-03-23T01:49:17;15.60;92.40
59651;DHT22;45954;49.768;8.636;2023-03-23T01:51:49;15.70;92.40
59651;DHT22;45954;49.768;8.636;2023-03-23T01:54:21;15.60;92.50
59651;DHT22;45954;49.768;8.636;2023-03-23T01:57:03;15.60;92.70
59651;DHT22;45954;49.768;8.636;2023-03-23T01:59:35;15.60;92.70
59651;DHT22;45954;49.768;8.636;2023-03-23T02:02:02;15.60;92.80
59651;DHT22;45954;49.768;8.636;2023-03-23T02:04:30;15.50;92.80
59651;DHT22;45954;49.768;8.636;2023-03-23T02:06:57;15.50;93.00
59651;DHT22;45954;49.768;8.636;2023-03-23T02:09:25;15.50;92.90
59651;DHT22;45954;49.768;8.636;2023-03-23T02:11:53;15.50;92.90
59651;DHT22;45954;49.768;8.636;2023-03-23T02:14:20;15.50;92.80
59651;DHT22;45954;49.768;8.636;2023-03-23T02:17:04;15.50;92.90
59651;DHT22;45954;49.768;8.636;2023-03-23T02:25:55;15.30;93.40
59651;DHT22;45954;49.768;8.636;2023-03-23T02:34:52;15.40;93.40
59651;DHT22;45954;49.768;8.636;2023-03-23T02:37:44;15.40;93.40
59651;DHT22;45954;49.768;8.636;2023-03-23T02:40:42;15.40;93.20
59651;DHT22;45954;49.768;8.636;2023-03-23T02:43:15;15.40;93.20
59651;DHT22;45954;49.768;8.636;2023-03-23T02:45:44;15.50;93.00
59651;DHT22;45954;49.768;8.636;2023-03-23T02:48:14;15.50;93.00
59651;DHT22;45954;49.768;8.636;2023-03-23T02:50:45;15.50;92.70
59651;DHT22;45954;49.768;8.636;2023-03-23T02:53:18;15.50;92.80
59651;DHT22;45954;49.768;8.636;2023-03-23T02:55:47;15.60;92.80
59651;DHT22;45954;49.768;8.636;2023-03-23T02:58:14;15.60;92.50
59651;DHT22;45954;49.768;8.636;2023-03-23T03:00:41;15.50;92.50
59651;DHT22;45954;49.768;8.636;2023-03-23T03:03:13;15.50;92.70
59651;DHT22;45954;49.768;8.636;2023-03-23T03:06:17;15.60;92.60
59651;DHT22;45954;49.768;8.636;2023-03-23T03:09:20;15.60;92.70
59651;DHT22;45954;49.768;8.636;2023-03-23T03:11:58;15.60;92.60
59651;DHT22;45954;49.768;8.636;2023-03-23T03:15:15;15.70;92.70
59651;DHT22;45954;49.768;8.636;2023-03-23T03:20:47;15.70;92.80
59651;DHT22;45954;49.768;8.636;2023-03-23T03:23:17;15.70;92.70
59651;DHT22;45954;49.768;8.636;2023-03-23T03:25:46;15.70;92.80
59651;DHT22;45954;49.768;8.636;2023-03-23T03:28:18;15.70;92.60
59651;DHT22;45954;49.768;8.636;2023-03-23T03:31:06;15.80;92.60
59651;DHT22;45954;49.768;8.636;2023-03-23T03:33:34;15.70;92.60
59651;DHT22;45954;49.768;8.636;2023-03-23T03:36:04;15.80;92.40
59651;DHT22;45954;49.768;8.636;2023-03-23T03:38:42;15.70;92.30
59651;DHT22;45954;49.768;8.636;2023-03-23T03:41:09;15.70;92.20
59651;DHT22;45954;49.768;8.636;2023-03-23T03:43:35;15.80;92.20
59651;DHT22;45954;49.768;8.636;2023-03-23T03:46:01;15.90;92.30
59651;DHT22;45954;49.768;8.636;2023-03-23T03:48:27;15.90;92.30
59651;DHT22;45954;49.768;8.636;2023-03-23T03:50:53;15.80;92.50
59651;DHT22;45954;49.768;8.636;2023-03-23T03:53:22;15.80;92.50
59651;DHT22;45954;49.768;8.636;2023-03-23T03:55:49;15.80;92.50
59651;DHT22;45954;49.768;8.636;2023-03-23T03:58:16;15.70;92.40
59651;DHT22;45954;49.768;8.636;2023-03-23T04:00:43;15.80;92.60
59651;DHT22;45954;49.768;8.636;2023-03-23T04:03:13;15.80;92.30
59651;DHT22;45954;49.768;8.636;2023-03-23T04:05:40;15.80;92.30
59651;DHT22;45954;49.768;8.636;2023-03-23T04:08:07;15.80;92.20
59651;DHT22;45954;49.768;8.636;2023-03-23T04:10:33;15.90;92.10
59651;DHT22;45954;49.768;8.636;2023-03-23T04:12:59;16.00;92.00
59651;DHT22;45954;49.768;8.636;2023-03-23T04:15:25;15.90;92.20
59651;DHT22;45954;49.768;8.636;2023-03-23T04:17:52;15.90;92.40
59651;DHT22;45954;49.768;8.636;2023-03-23T04:20:18;15.90;92.70
59651;DHT22;45954;49.768;8.636;2023-03-23T04:22:45;15.90;92.30
59651;DHT22;45954;49.768;8.636;2023-03-23T04:25:17;15.90;92.40
59651;DHT22;45954;49.768;8.636;2023-03-23T04:27:47;15.90;92.70
59651;DHT22;45954;49.768;8.636;2023-03-23T04:30:20;15.80;93.20
59651;DHT22;45954;49.768;8.636;2023-03-23T04:32:48;15.70;93.00
59651;DHT22;45954;49.768;8.636;2023-03-23T04:35:23;15.60;93.40
59651;DHT22;45954;49.768;8.636;2023-03-23T04:37:53;15.40;93.70
59651;DHT22;45954;49.768;8.636;2023-03-23T04:40:21;15.50;94.00
59651;DHT22;45954;49.768;8.636;2023-03-23T04:42:47;15.30;94.30
59651;DHT22;45954;49.768;8.636;2023-03-23T04:45:19;15.30;94.30
59651;DHT22;45954;49.768;8.636;2023-03-23T04:47:49;15.20;94.50
59651;DHT22;45954;49.768;8.636;2023-03-23T04:50:26;15.20;94.70
59651;DHT22;45954;49.768;8.636;2023-03-23T04:52:57;15.20;94.80
59651;DHT22;45954;49.768;8.636;2023-03-23T04:55:25;15.10;95.00
59651;DHT22;45954;49.768;8.636;2023-03-23T04:57:51;15.00;95.20
59651;DHT22;45954;49.768;8.636;2023-03-23T05:00:18;15.00;95.30
59651;DHT22;45954;49.768;8.636;2023-03-23T05:02:47;15.00;95.40
59651;DHT22;45954;49.768;8.636;2023-03-23T05:05:18;15.00;95.50
59651;DHT22;45954;49.768;8.636;2023-03-23T05:07:46;15.00;95.60
59651;DHT22;45954;49.768;8.636;2023-03-23T05:10:12;15.00;95.80
59651;DHT22;45954;49.768;8.636;2023-03-23T05:12:39;15.00;95.90
59651;DHT22;45954;49.768;8.636;2023-03-23T05:15:06;14.90;95.80
59651;DHT22;45954;49.768;8.636;2023-03-23T05:17:34;14.90;96.10
59651;DHT22;45954;49.768;8.636;2023-03-23T05:20:01;14.90;96.10
59651;DHT22;45954;49.768;8.636;2023-03-23T05:22:31;15.00;96.20
59651;DHT22;45954;49.768;8.636;2023-03-23T05:25:00;14.90;96.30
59651;DHT22;45954;49.768;8.636;2023-03-23T05:27:29;15.00;96.50
59651;DHT22;45954;49.768;8.636;2023-03-23T05:29:57;15.00;96.00
59651;DHT22;45954;49.768;8.636;2023-03-23T05:32:25;14.90;96.20
59651;DHT22;45954;49.768;8.636;2023-03-23T05:34:58;14.90;96.30
59651;DHT22;45954;49.768;8.636;2023-03-23T05:37:26;15.00;96.40
59651;DHT22;45954;49.768;8.636;2023-03-23T05:39:54;15.00;96.30
59651;DHT22;45954;49.768;8.636;2023-03-23T05:42:22;15.00;96.50
59651;DHT22;45954;49.768;8.636;2023-03-23T05:44:49;15.00;96.60
59651;DHT22;45954;49.768;8.636;2023-03-23T05:47:16;15.00;96.90
59651;DHT22;45954;49.768;8.636;2023-03-23T05:49:42;14.90;97.20
59651;DHT22;45954;49.768;8.636;2023-03-23T05:52:08;14.80;97.60
59651;DHT22;45954;49.768;8.636;2023-03-23T05:54:34;14.80;98.10
59651;DHT22;45954;49.768;8.636;2023-03-23T05:57:01;14.70;98.80
59651;DHT22;45954;49.768;8.636;2023-03-23T05:59:28;14.60;99.30
59651;DHT22;45954;49.768;8.636;2023-03-23T06:01:53;14.60;99.60
59651;DHT22;45954;49.768;8.636;2023-03-23T06:04:19;14.70;99.80
59651;DHT22;45954;49.768;8.636;2023-03-23T06:06:46;14.60;99.90
59651;DHT22;45954;49.768;8.636;2023-03-23T06:09:12;14.60;99.90
59651;DHT22;45954;49.768;8.636;2023-03-23T06:11:38;14.60;99.90
59651;DHT22;45954;49.768;8.636;2023-03-23T06:14:04;14.40;99.90
59651;DHT22;45954;49.768;8.636;2023-03-23T06:16:29;14.40;99.90
59651;DHT22;45954;49.768;8.636;2023-03-23T06:18:55;14.60;99.90
59651;DHT22;45954;49.768;8.636;2023-03-23T06:21:23;14.50;99.90
59651;DHT22;45954;49.768;8.636;2023-03-23T06:23:48;14.50;99.90
59651;DHT22;45954;49.768;8.636;2023-03-23T06:26:18;14.40;99.90
59651;DHT22;45954;49.768;8.636;2023-03-23T06:28:45;14.40;99.90
59651;DHT22;45954;49.768;8.636;2023-03-23T06:31:11;14.50;99.90
59651;DHT22;45954;49.768;8.636;2023-03-23T06:33:38;14.30;99.90
59651;DHT22;45954;49.768;8.636;2023-03-23T06:36:05;14.40;99.90
59651;DHT22;45954;49.768;8.636;2023-03-23T06:38:32;14.30;99.90
59651;DHT22;45954;49.768;8.636;2023-03-23T06:40:58;14.30;99.90
59651;DHT22;45954;49.768;8.636;2023-03-23T06:43:24;14.40;99.90
59651;DHT22;45954;49.768;8.636;2023-03-23T06:45:51;14.40;99.90
59651;DHT22;45954;49.768;8.636;2023-03-23T06:48:18;14.30;99.90
59651;DHT22;45954;49.768;8.636;2023-03-23T06:50:45;14.40;99.90
59651;DHT22;45954;49.768;8.636;2023-03-23T06:53:11;14.20;99.90
59651;DHT22;45954;49.768;8.636;2023-03-23T06:55:38;14.10;99.90
59651;DHT22;45954;49.768;8.636;2023-03-23T06:58:05;14.20;99.90
59651;DHT22;45954;49.768;8.636;2023-03-23T07:00:32;14.00;99.90
59651;DHT22;45954;49.768;8.636;2023-03-23T07:02:59;14.10;99.90
59651;DHT22;45954;49.768;8.636;2023-03-23T07:05:25;14.00;99.90
59651;DHT22;45954;49.768;8.636;2023-03-23T07:07:51;14.10;99.90
59651;DHT22;45954;49.768;8.636;2023-03-23T07:10:18;13.90;99.90
59651;DHT22;45954;49.768;8.636;2023-03-23T07:12:44;14.10;99.90
59651;DHT22;45954;49.768;8.636;2023-03-23T07:15:10;14.10;99.90
59651;DHT22;45954;49.768;8.636;2023-03-23T07:17:39;14.10;99.90
59651;DHT22;45954;49.768;8.636;2023-03-23T07:20:07;14.10;99.90
59651;DHT22;45954;49.768;8.636;2023-03-23T07:22:33;13.90;99.90
59651;DHT22;45954;49.768;8.636;2023-03-23T07:24:59;14.00;99.90
59651;DHT22;45954;49.768;8.636;2023-03-23T07:27:26;14.00;99.90
59651;DHT22;45954;49.768;8.636;2023-03-23T07:29:52;14.00;99.90
59651;DHT22;45954;49.768;8.636;2023-03-23T07:32:17;13.90;99.90
59651;DHT22;45954;49.768;8.636;2023-03-23T07:34:44;14.00;99.90
59651;DHT22;45954;49.768;8.636;2023-03-23T07:37:10;13.90;99.90
59651;DHT22;45954;49.768;8.636;2023-03-23T07:39:36;13.80;99.90
59651;DHT22;45954;49.768;8.636;2023-03-23T07:42:03;13.80;99.90
59651;DHT22;45954;49.768;8.636;2023-03-23T07:44:29;13.80;99.90
59651;DHT22;45954;49.768;8.636;2023-03-23T07:46:55;14.00;99.90
59651;DHT22;45954;49.768;8.636;2023-03-23T07:49:21;14.00;99.90
59651;DHT22;45954;49.768;8.636;2023-03-23T07:51:47;14.00;99.90
59651;DHT22;45954;49.768;8.636;2023-03-23T07:54:13;13.90;99.90
59651;DHT22;45954;49.768;8.636;2023-03-23T07:56:40;13.90;99.90
59651;DHT22;45954;49.768;8.636;2023-03-23T07:59:07;13.90;99.90
59651;DHT22;45954;49.768;8.636;2023-03-23T08:01:34;14.00;99.90
59651;DHT22;45954;49.768;8.636;2023-03-23T08:04:00;14.00;99.90
59651;DHT22;45954;49.768;8.636;2023-03-23T08:06:26;14.00;99.90
59651;DHT22;45954;49.768;8.636;2023-03-23T08:08:53;14.00;99.90
59651;DHT22;45954;49.768;8.636;2023-03-23T08:11:19;14.00;99.90
59651;DHT22;45954;49.768;8.636;2023-03-23T08:13:46;14.00;99.90
59651;DHT22;45954;49.768;8.636;2023-03-23T08:16:13;14.00;99.90
59651;DHT22;45954;49.768;8.636;2023-03-23T08:18:39;14.00;99.90
59651;DHT22;45954;49.768;8.636;2023-03-23T08:21:06;14.00;99.90
59651;DHT22;45954;49.768;8.636;2023-03-23T08:23:36;14.00;99.90
59651;DHT22;45954;49.768;8.636;2023-03-23T08:26:06;13.90;99.90
59651;DHT22;45954;49.768;8.636;2023-03-23T08:28:37;13.90;99.90
59651;DHT22;45954;49.768;8.636;2023-03-23T08:31:11;14.10;99.90
59651;DHT22;45954;49.768;8.636;2023-03-23T08:33:40;14.10;99.90
59651;DHT22;45954;49.768;8.636;2023-03-23T08:36:07;13.90;99.90
59651;DHT22;45954;49.768;8.636;2023-03-23T08:38:34;13.90;99.90
59651;DHT22;45954;49.768;8.636;2023-03-23T08:41:04;14.10;99.90
59651;DHT22;45954;49.768;8.636;2023-03-23T08:43:32;14.10;99.90
59651;DHT22;45954;49.768;8.636;2023-03-23T08:45:58;14.20;99.90
59651;DHT22;45954;49.768;8.636;2023-03-23T08:48:24;14.00;99.90
59651;DHT22;45954;49.768;8.636;2023-03-23T08:50:51;14.00;99.90
59651;DHT22;45954;49.768;8.636;2023-03-23T08:53:18;14.10;99.90
59651;DHT22;45954;49.768;8.636;2023-03-23T08:55:47;14.00;99.90
59651;DHT22;45954;49.768;8.636;2023-03-23T08:58:14;14.00;99.90
59651;DHT22;45954;49.768;8.636;2023-03-23T09:00:40;14.10;99.90
59651;DHT22;45954;49.768;8.636;2023-03-23T09:03:06;14.10;99.90
59651;DHT22;45954;49.768;8.636;2023-03-23T09:05:32;13.90;99.90
59651;DHT22;45954;49.768;8.636;2023-03-23T09:07:58;14.00;99.90
59651;DHT22;45954;49.768;8.636;2023-03-23T09:10:26;14.00;99.90
59651;DHT22;45954;49.768;8.636;2023-03-23T09:12:54;14.00;99.90
59651;DHT22;45954;49.768;8.636;2023-03-23T09:15:21;14.10;99.90
59651;DHT22;45954;49.768;8.636;2023-03-23T09:17:50;14.20;99.90
59651;DHT22;45954;49.768;8.636;2023-03-23T09:20:22;14.00;99.90
59651;DHT22;45954;49.768;8.636;2023-03-23T09:22:52;14.10;99.90
59651;DHT22;45954;49.768;8.636;2023-03-23T09:25:21;14.00;99.90
59651;DHT22;45954;49.768;8.636;2023-03-23T09:27:53;14.10;99.90
59651;DHT22;45954;49.768;8.636;2023-03-23T09:30:24;14.10;99.90
59651;DHT22;45954;49.768;8.636;2023-03-23T09:32:55;14.30;99.90
59651;DHT22;45954;49.768;8.636;2023-03-23T09:35:22;14.20;99.90
59651;DHT22;45954;49.768;8.636;2023-03-23T09:37:51;14.30;99.90
59651;DHT22;45954;49.768;8.636;2023-03-23T09:40:21;14.20;99.90
59651;DHT22;45954;49.768;8.636;2023-03-23T09:43:27;14.10;99.90
59651;DHT22;45954;49.768;8.636;2023-03-23T09:49:19;14.20;99.90
59651;DHT22;45954;49.768;8.636;2023-03-23T09:51:57;14.40;99.90
59651;DHT22;45954;49.768;8.636;2023-03-23T09:54:36;14.40;99.90
59651;DHT22;45954;49.768;8.636;2023-03-23T09:57:10;14.40;99.90
59651;DHT22;45954;49.768;8.636;2023-03-23T09:59:55;14.50;99.90
59651;DHT22;45954;49.768;8.636;2023-03-23T10:02:32;14.40;99.90
59651;DHT22;45954;49.768;8.636;2023-03-23T10:05:34;14.40;99.90
59651;DHT22;45954;49.768;8.636;2023-03-23T10:08:10;14.50;99.90
59651;DHT22;45954;49.768;8.636;2023-03-23T10:13:48;14.70;99.90
59651;DHT22;45954;49.768;8.636;2023-03-23T10:16:27;14.80;99.90
59651;DHT22;45954;49.768;8.636;2023-03-23T10:19:14;14.70;99.90
59651;DHT22;45954;49.768;8.636;2023-03-23T10:21:54;14.70;99.90
59651;DHT22;45954;49.768;8.636;2023-03-23T10:24:56;14.80;99.90
59651;DHT22;45954;49.768;8.636;2023-03-23T10:30:33;14.80;99.90
59651;DHT22;45954;49.768;8.636;2023-03-23T10:35:56;14.70;99.90
59651;DHT22;45954;49.768;8.636;2023-03-23T10:38:39;14.60;99.90
59651;DHT22;45954;49.768;8.636;2023-03-23T10:41:14;14.70;99.90
59651;DHT22;45954;49.768;8.636;2023-03-23T10:43:44;14.50;99.90
59651;DHT22;45954;49.768;8.636;2023-03-23T10:49:08;14.50;99.90
59651;DHT22;45954;49.768;8.636;2023-03-23T10:51:43;14.40;99.90
59651;DHT22;45954;49.768;8.636;2023-03-23T10:54:12;14.40;99.90
59651;DHT22;45954;49.768;8.636;2023-03-23T10:56:42;14.50;99.90
59651;DHT22;45954;49.768;8.636;2023-03-23T10:59:26;14.50;99.90
59651;DHT22;45954;49.768;8.636;2023-03-23T11:01:57;14.40;99.90
59651;DHT22;45954;49.768;8.636;2023-03-23T11:04:30;14.40;99.90
59651;DHT22;45954;49.768;8.636;2023-03-23T11:07:00;14.30;99.90
59651;DHT22;45954;49.768;8.636;2023-03-23T11:09:50;14.30;99.90
59651;DHT22;45954;49.768;8.636;2023-03-23T11:12:20;14.30;99.90
59651;DHT22;45954;49.768;8.636;2023-03-23T11:14:46;14.50;99.90
59651;DHT22;45954;49.768;8.636;2023-03-23T11:17:25;14.50;99.90
59651;DHT22;45954;49.768;8.636;2023-03-23T11:19:53;14.60;99.90
59651;DHT22;45954;49.768;8.636;2023-03-23T11:22:28;14.60;99.90
59651;DHT22;45954;49.768;8.636;2023-03-23T11:25:03;14.60;99.90
59651;DHT22;45954;49.768;8.636;2023-03-23T11:27:32;14.70;99.90
59651;DHT22;45954;49.768;8.636;2023-03-23T11:30:10;14.60;99.90
59651;DHT22;45954;49.768;8.636;2023-03-23T11:32:45;14.50;99.90
59651;DHT22;45954;49.768;8.636;2023-03-23T11:35:25;14.50;99.90
59651;DHT22;45954;49.768;8.636;2023-03-23T11:37:57;14.60;99.90
59651;DHT22;45954;49.768;8.636;2023-03-23T11:40:27;14.60;99.90
59651;DHT22;45954;49.768;8.636;2023-03-23T11:43:17;14.60;99.90
59651;DHT22;45954;49.768;8.636;2023-03-23T11:45:50;14.60;99.90
59651;DHT22;45954;49.768;8.636;2023-03-23T11:48:49;14.60;99.90
59651;DHT22;45954;49.768;8.636;2023-03-23T11:54:30;14.70;99.90
59651;DHT22;45954;49.768;8.636;2023-03-23T11:56:58;14.70;99.90
59651;DHT22;45954;49.768;8.636;2023-03-23T11:59:32;14.60;99.90
59651;DHT22;45954;49.768;8.636;2023-03-23T12:17:19;14.50;99.90
59651;DHT22;45954;49.768;8.636;2023-03-23T12:23:30;14.60;99.90
59651;DHT22;45954;49.768;8.636;2023-03-23T12:42:58;15.20;99.90
59651;DHT22;45954;49.768;8.636;2023-03-23T12:48:31;15.40;99.90
59651;DHT22;45954;49.768;8.636;2023-03-23T12:54:12;15.40;99.90
59651;DHT22;45954;49.768;8.636;2023-03-23T13:03:27;15.30;99.90
59651;DHT22;45954;49.768;8.636;2023-03-23T13:06:25;15.30;99.90
59651;DHT22;45954;49.768;8.636;2023-03-23T13:12:05;15.40;99.90
59651;DHT22;45954;49.768;8.636;2023-03-23T13:21:25;15.20;99.90
59651;DHT22;45954;49.768;8.636;2023-03-23T13:24:05;15.20;99.90
59651;DHT22;45954;49.768;8.636;2023-03-23T13:26:42;15.20;99.90
59651;DHT22;45954;49.768;8.636;2023-03-23T13:29:14;15.30;99.90
59651;DHT22;45954;49.768;8.636;2023-03-23T13:31:50;15.30;99.90
59651;DHT22;45954;49.768;8.636;2023-03-23T13:34:31;15.30;99.90
59651;DHT22;45954;49.768;8.636;2023-03-23T13:42:20;15.20;99.90
59651;DHT22;45954;49.768;8.636;2023-03-23T13:49:57;15.40;99.90
59651;DHT22;45954;49.768;8.636;2023-03-23T13:58:09;15.50;99.90
59651;DHT22;45954;49.768;8.636;2023-03-23T14:01:11;15.70;99.90
59651;DHT22;45954;49.768;8.636;2023-03-23T14:03:48;15.60;99.90
59651;DHT22;45954;49.768;8.636;2023-03-23T14:06:22;15.60;99.90
59651;DHT22;45954;49.768;8.636;2023-03-23T14:08:54;15.60;99.90
59651;DHT22;45954;49.768;8.636;2023-03-23T14:11:24;15.60;99.90
59651;DHT22;45954;49.768;8.636;2023-03-23T14:14:04;15.60;99.90
59651;DHT22;45954;49.768;8.636;2023-03-23T14:16:41;15.60;99.90
59651;DHT22;45954;49.768;8.636;2023-03-23T14:19:25;15.50;99.90
59651;DHT22;45954;49.768;8.636;2023-03-23T14:21:57;15.50;99.90
59651;DHT22;45954;49.768;8.636;2023-03-23T14:24:32;15.40;99.90
59651;DHT22;45954;49.768;8.636;2023-03-23T14:27:13;15.40;99.90
59651;DHT22;45954;49.768;8.636;2023-03-23T14:29:41;15.40;99.90
59651;DHT22;45954;49.768;8.636;2023-03-23T14:32:15;15.40;99.90
59651;DHT22;45954;49.768;8.636;2023-03-23T14:34:47;15.40;99.90
59651;DHT22;45954;49.768;8.636;2023-03-23T14:37:15;15.40;99.90
59651;DHT22;45954;49.768;8.636;2023-03-23T14:39:49;15.50;99.90
59651;DHT22;45954;49.768;8.636;2023-03-23T14:42:26;15.50;99.90
59651;DHT22;45954;49.768;8.636;2023-03-23T14:44:54;15.50;99.90
59651;DHT22;45954;49.768;8.636;2023-03-23T14:47:47;15.40;99.90
59651;DHT22;45954;49.768;8.636;2023-03-23T14:50:38;15.40;99.90
59651;DHT22;45954;49.768;8.636;2023-03-23T14:53:32;15.40;99.90
59651;DHT22;45954;49.768;8.636;2023-03-23T14:56:02;15.50;99.90
59651;DHT22;45954;49.768;8.636;2023-03-23T14:58:32;15.40;99.90
59651;DHT22;45954;49.768;8.636;2023-03-23T15:01:07;15.50;99.90
59651;DHT22;45954;49.768;8.636;2023-03-23T15:03:40;15.40;99.90
59651;DHT22;45954;49.768;8.636;2023-03-23T15:06:22;15.50;99.90
59651;DHT22;45954;49.768;8.636;2023-03-23T15:08:55;15.60;99.90
59651;DHT22;45954;49.768;8.636;2023-03-23T15:11:31;15.60;99.90
59651;DHT22;45954;49.768;8.636;2023-03-23T15:14:14;15.60;99.90
59651;DHT22;45954;49.768;8.636;2023-03-23T15:16:47;15.70;99.90
59651;DHT22;45954;49.768;8.636;2023-03-23T15:19:41;15.70;99.90
59651;DHT22;45954;49.768;8.636;2023-03-23T15:22:24;15.90;99.90
59651;DHT22;45954;49.768;8.636;2023-03-23T15:24:54;15.90;99.90
59651;DHT22;45954;49.768;8.636;2023-03-23T15:27:32;15.90;99.90
59651;DHT22;45954;49.768;8.636;2023-03-23T15:32:47;16.00;99.90
59651;DHT22;45954;49.768;8.636;2023-03-23T15:35:22;15.90;99.90
59651;DHT22;45954;49.768;8.636;2023-03-23T15:37:58;16.10;99.90
59651;DHT22;45954;49.768;8.636;2023-03-23T15:40:33;16.00;99.90
59651;DHT22;45954;49.768;8.636;2023-03-23T15:43:16;15.70;99.90
59651;DHT22;45954;49.768;8.636;2023-03-23T15:48:33;15.80;99.90
59651;DHT22;45954;49.768;8.636;2023-03-23T15:51:20;15.50;99.90
59651;DHT22;45954;49.768;8.636;2023-03-23T15:53:49;15.70;99.90
59651;DHT22;45954;49.768;8.636;2023-03-23T15:56:16;15.60;99.90
59651;DHT22;45954;49.768;8.636;2023-03-23T15:58:42;15.50;99.90
59651;DHT22;45954;49.768;8.636;2023-03-23T16:01:12;15.50;99.90
59651;DHT22;45954;49.768;8.636;2023-03-23T16:06:15;15.30;99.90
59651;DHT22;45954;49.768;8.636;2023-03-23T16:08:43;15.50;99.90
59651;DHT22;45954;49.768;8.636;2023-03-23T16:11:14;15.40;99.90
59651;DHT22;45954;49.768;8.636;2023-03-23T16:13:41;15.40;99.90
59651;DHT22;45954;49.768;8.636;2023-03-23T16:16:41;15.40;99.90
59651;DHT22;45954;49.768;8.636;2023-03-23T16:19:12;15.50;99.90
59651;DHT22;45954;49.768;8.636;2023-03-23T16:21:40;15.50;99.90
59651;DHT22;45954;49.768;8.636;2023-03-23T16:24:07;15.30;99.90
59651;DHT22;45954;49.768;8.636;2023-03-23T16:26:34;15.20;99.90
59651;DHT22;45954;49.768;8.636;2023-03-23T16:29:01;15.10;99.90
59651;DHT22;45954;49.768;8.636;2023-03-23T16:31:28;15.10;99.90
59651;DHT22;45954;49.768;8.636;2023-03-23T16:33:54;15.20;99.90
59651;DHT22;45954;49.768;8.636;2023-03-23T16:36:20;15.20;99.90
59651;DHT22;45954;49.768;8.636;2023-03-23T16:38:46;15.20;99.90
59651;DHT22;45954;49.768;8.636;2023-03-23T16:41:11;15.10;99.90
59651;DHT22;45954;49.768;8.636;2023-03-23T16:43:37;15.30;99.90
59651;DHT22;45954;49.768;8.636;2023-03-23T16:46:03;15.10;99.90
59651;DHT22;45954;49.768;8.636;2023-03-23T16:48:29;15.10;99.90
59651;DHT22;45954;49.768;8.636;2023-03-23T16:50:55;15.10;99.90
59651;DHT22;45954;49.768;8.636;2023-03-23T16:53:22;15.10;99.90
59651;DHT22;45954;49.768;8.636;2023-03-23T16:55:51;15.00;99.90
59651;DHT22;45954;49.768;8.636;2023-03-23T16:58:17;14.90;99.90
59651;DHT22;45954;49.768;8.636;2023-03-23T17:00:47;15.00;99.90
59651;DHT22;45954;49.768;8.636;2023-03-23T17:03:17;15.00;99.90
59651;DHT22;45954;49.768;8.636;2023-03-23T17:05:44;15.00;99.90
59651;DHT22;45954;49.768;8.636;2023-03-23T17:08:10;15.10;99.90
59651;DHT22;45954;49.768;8.636;2023-03-23T17:10:38;15.10;99.90
59651;DHT22;45954;49.768;8.636;2023-03-23T17:13:05;15.10;99.90
59651;DHT22;45954;49.768;8.636;2023-03-23T17:15:31;15.00;99.90
59651;DHT22;45954;49.768;8.636;2023-03-23T17:17:57;15.00;99.90
59651;DHT22;45954;49.768;8.636;2023-03-23T17:20:23;15.10;99.90
59651;DHT22;45954;49.768;8.636;2023-03-23T17:22:49;15.00;99.90
59651;DHT22;45954;49.768;8.636;2023-03-23T17:25:15;15.00;99.90
59651;DHT22;45954;49.768;8.636;2023-03-23T17:27:41;15.10;99.90
59651;DHT22;45954;49.768;8.636;2023-03-23T17:30:08;15.00;99.90
59651;DHT22;45954;49.768;8.636;2023-03-23T17:32:35;15.10;99.90
59651;DHT22;45954;49.768;8.636;2023-03-23T17:35:02;15.10;99.90
59651;DHT22;45954;49.768;8.636;2023-03-23T17:37:30;15.10;99.90
59651;DHT22;45954;49.768;8.636;2023-03-23T17:39:56;15.20;99.90
59651;DHT22;45954;49.768;8.636;2023-03-23T17:42:22;15.20;99.90
59651;DHT22;45954;49.768;8.636;2023-03-23T17:44:48;15.10;99.90
59651;DHT22;45954;49.768;8.636;2023-03-23T17:47:14;15.10;99.90
59651;DHT22;45954;49.768;8.636;2023-03-23T17:49:40;15.00;99.90
59651;DHT22;45954;49.768;8.636;2023-03-23T17:52:06;15.00;99.90
59651;DHT22;45954;49.768;8.636;2023-03-23T17:54:31;14.90;99.90